createdAt,value
2024-03-05T00:54:02.101Z,98938.52
2024-03-05T00:56:32.621Z,98940.73
2024-03-05T00:59:01.926Z,98935.86
2024-03-05T01:01:29.308Z,98943.47
2024-03-05T01:04:01.638Z,98948.14
2024-03-05T05:26:18.409Z,99009.69
2024-03-05T05:29:07.729Z,99012.42
2024-03-05T05:31:38.635Z,99012.14
2024-03-05T05:34:06.917Z,99009.80
2024-03-05T07:07:01.393Z,99069.86
2024-03-05T07:09:32.681Z,99068.27
2024-03-05T07:12:00.349Z,99074.27
2024-03-05T07:14:33.009Z,99071.05
2024-03-05T07:17:00.359Z,99073.73
2024-03-05T07:19:27.599Z,99071.48
2024-03-05T07:21:54.670Z,99075.48
2024-03-05T07:24:21.456Z,99079.29
2024-03-05T07:26:56.795Z,99083.25
2024-03-05T07:29:35.577Z,99092.04
2024-03-05T07:32:04.896Z,99089.84
2024-03-05T07:34:35.858Z,99086.73
2024-03-05T07:37:10.840Z,99086.88
2024-03-05T07:39:46.432Z,99086.21
2024-03-05T07:42:15.704Z,99089.69
2024-03-05T07:44:44.942Z,99085.61
2024-03-05T07:47:14.131Z,99085.98
2024-03-05T07:49:43.577Z,99085.34
2024-03-05T07:52:12.709Z,99082.70
2024-03-05T07:54:41.502Z,99082.75
2024-03-05T07:57:10.593Z,99081.05
2024-03-05T07:59:39.777Z,99086.13
2024-03-05T08:02:14.685Z,99086.86
2024-03-05T08:04:43.729Z,99090.34
2024-03-05T08:07:17.772Z,99095.61
2024-03-05T08:09:50.387Z,99096.14
2024-03-05T08:12:22.668Z,99098.88
2024-03-05T08:14:49.506Z,99100.88
2024-03-05T08:17:28.488Z,99103.48
2024-03-05T08:19:58.092Z,99098.05
2024-03-05T08:22:24.917Z,99099.19
2024-03-05T08:24:53.762Z,99096.19
2024-03-05T08:27:30.823Z,99102.85
2024-03-05T08:29:58.959Z,99098.80
2024-03-05T08:32:28.739Z,99100.61
2024-03-05T08:34:55.541Z,99101.98
2024-03-05T08:37:22.570Z,99104.29
2024-03-05T08:39:50.649Z,99103.42
2024-03-05T08:42:17.533Z,99103.83
2024-03-05T08:44:48.869Z,99105.66
2024-03-05T08:47:15.745Z,99104.77
2024-03-05T08:49:46.553Z,99103.77
2024-03-05T08:52:16.425Z,99108.31
2024-03-05T08:54:45.975Z,99111.17
2024-03-05T08:57:13.642Z,99110.11
2024-03-05T08:59:40.391Z,99115.39
2024-03-05T09:02:11.886Z,99117.80
2024-03-05T09:04:43.334Z,99120.39
2024-03-05T09:07:14.985Z,99119.81
2024-03-05T09:09:45.002Z,99120.80
2024-03-05T09:12:16.735Z,99127.79
2024-03-05T09:14:45.758Z,99133.42
2024-03-05T09:17:12.890Z,99141.02
2024-03-05T09:19:45.095Z,99142.63
2024-03-05T09:22:16.230Z,99144.65
2024-03-05T09:24:48.692Z,99146.61
2024-03-05T09:27:20.013Z,99151.23
2024-03-05T09:29:48.932Z,99155.88
2024-03-05T09:32:18.796Z,99158.95
2024-03-05T09:34:46.305Z,99159.77
2024-03-05T09:37:15.403Z,99167.42
2024-03-05T09:39:42.056Z,99168.41
2024-03-05T09:42:20.118Z,99167.60
2024-03-05T09:44:52.170Z,99168.66
2024-03-05T09:47:23.135Z,99168.38
2024-03-05T09:49:56.018Z,99170.50
2024-03-05T09:52:29.862Z,99173.36
2024-03-05T09:55:02.265Z,99167.48
2024-03-05T09:57:34.930Z,99171.52
2024-03-05T10:00:15.772Z,99178.55
2024-03-05T10:02:53.490Z,99178.35
2024-03-05T10:05:20.731Z,99183.56
2024-03-05T10:07:50.207Z,99183.06
2024-03-05T10:10:21.900Z,99189.23
2024-03-05T10:13:23.834Z,99191.17
2024-03-05T10:42:19.443Z,99194.55
2024-03-05T10:45:43.049Z,99196.84
2024-03-05T10:48:21.327Z,99196.19
2024-03-05T11:05:21.199Z,99214.37
2024-03-05T11:07:58.097Z,99214.83
2024-03-05T11:10:29.212Z,99215.11
2024-03-05T11:12:56.034Z,99212.88
2024-03-05T11:15:25.564Z,99213.09
2024-03-05T11:17:57.657Z,99212.30
2024-03-05T11:20:55.758Z,99209.91
2024-03-05T11:23:33.377Z,99220.26
2024-03-05T11:26:07.089Z,99220.63
2024-03-05T11:28:37.900Z,99217.27
2024-03-05T11:31:18.660Z,99220.60
2024-03-05T11:34:05.680Z,99226.82
2024-03-05T11:36:34.478Z,99223.48
2024-03-05T11:39:07.806Z,99219.70
2024-03-05T11:41:41.885Z,99220.92
2024-03-05T12:40:00.022Z,99268.81
2024-03-05T12:42:29.200Z,99270.08
2024-03-05T12:45:10.851Z,99269.19
2024-03-05T12:47:41.135Z,99274.55
2024-03-05T12:50:12.508Z,99273.17
2024-03-05T12:52:39.768Z,99276.42
2024-03-05T12:55:12.479Z,99280.61
2024-03-05T12:57:42.078Z,99278.86
2024-03-05T13:00:16.388Z,99278.70
2024-03-05T13:02:43.644Z,99284.55
2024-03-05T13:05:12.787Z,99293.38
2024-03-05T13:07:42.306Z,99295.09
2024-03-05T13:10:12.729Z,99295.61
2024-03-05T13:28:35.622Z,99327.48
2024-03-05T13:31:06.516Z,99344.08
2024-03-05T13:33:36.740Z,99340.68
2024-03-05T13:36:12.817Z,99340.73
2024-03-05T13:38:43.555Z,99336.73
2024-03-05T13:41:11.871Z,99328.27
2024-03-05T14:04:10.255Z,99353.39
2024-03-05T14:06:44.645Z,99353.41
2024-03-05T14:17:10.320Z,99368.79
2024-03-05T14:19:50.450Z,99367.17
2024-03-05T14:22:54.873Z,99369.70
2024-03-05T14:25:22.560Z,99374.25
2024-03-05T19:24:37.658Z,99662.70
2024-03-05T19:27:07.189Z,99660.55
2024-03-05T19:30:22.703Z,99662.98
2024-03-05T20:23:25.875Z,99672.52
2024-03-05T20:25:52.949Z,99670.09
2024-03-05T20:28:20.150Z,99675.23
2024-03-05T20:30:47.257Z,99679.86
2024-03-05T20:33:19.077Z,99679.30
2024-03-05T20:35:46.336Z,99677.39
2024-03-05T20:38:16.343Z,99679.59
2024-03-05T20:40:43.481Z,99683.73
2024-03-05T20:43:11.780Z,99680.53
2024-03-05T20:45:43.142Z,99679.25
2024-03-05T20:48:10.413Z,99680.52
2024-03-05T20:50:39.844Z,99682.07
2024-03-05T20:53:10.150Z,99684.67
2024-03-05T20:55:39.597Z,99685.48
2024-03-05T20:58:09.658Z,99687.37
2024-03-05T21:00:38.772Z,99690.16
2024-03-05T21:03:11.332Z,99691.52
2024-03-05T21:05:43.297Z,99694.30
2024-03-05T21:08:13.675Z,99700.56
2024-03-05T21:27:08.837Z,99701.12
2024-03-05T21:29:35.476Z,99707.70
2024-03-05T21:32:06.921Z,99708.11
2024-03-05T21:34:39.612Z,99704.75
2024-03-05T21:40:53.019Z,99704.02
2024-03-05T21:43:21.924Z,99702.02
2024-03-05T21:45:49.925Z,99703.89
2024-03-05T21:48:19.547Z,99704.42
2024-03-05T21:50:53.232Z,99707.85
2024-03-05T21:54:06.998Z,99709.30
2024-03-05T21:56:59.134Z,99716.26
2024-03-05T21:59:30.565Z,99716.31
2024-03-05T22:01:57.982Z,99715.77
2024-03-05T22:04:25.270Z,99719.75
2024-03-05T22:06:55.781Z,99717.81
2024-03-05T22:09:25.374Z,99723.27
2024-03-05T22:11:52.331Z,99721.76
2024-03-05T22:14:22.164Z,99726.23
2024-03-05T22:16:49.343Z,99731.80
2024-03-05T22:19:18.927Z,99730.38
2024-03-05T22:21:47.669Z,99735.08
2024-03-05T22:24:17.219Z,99735.60
2024-03-05T22:26:47.122Z,99738.80
2024-03-05T22:29:14.629Z,99739.90
2024-03-05T22:31:41.790Z,99743.34
2024-03-05T22:34:09.826Z,99738.55
2024-03-05T22:36:38.320Z,99743.79
2024-03-05T22:39:06.955Z,99744.68
2024-03-05T22:41:36.519Z,99747.86
2024-03-05T22:44:07.317Z,99749.92
2024-03-05T22:46:37.391Z,99749.48
2024-03-05T22:49:04.625Z,99747.38
2024-03-05T22:51:32.102Z,99744.72
2024-03-05T22:53:59.438Z,99746.52
2024-03-05T22:56:26.916Z,99738.91
2024-03-05T22:58:59.175Z,99744.00
2024-03-05T23:01:29.076Z,99742.23
2024-03-05T23:03:56.307Z,99744.45
2024-03-05T23:06:26.140Z,99744.73
2024-03-05T23:08:54.259Z,99742.56
2024-03-05T23:11:21.386Z,99744.63
2024-03-05T23:13:49.037Z,99745.02
2024-03-05T23:16:47.157Z,99744.02
